createdAt,value
2019-02-06T00:01:00.005Z,7.61
2019-02-06T00:03:30.005Z,6.82
2019-02-06T00:06:00.392Z,7.42
2019-02-06T00:08:30.716Z,7.57
2019-02-06T00:11:00.738Z,7.72
2019-02-06T00:13:31.328Z,7.63
2019-02-06T00:16:01.626Z,7.73
2019-02-06T00:18:31.622Z,7.70
2019-02-06T00:21:01.753Z,7.48
2019-02-06T00:23:31.719Z,7.66
2019-02-06T00:26:01.993Z,7.49
2019-02-06T00:28:32.344Z,7.44
2019-02-06T00:31:02.427Z,7.26
2019-02-06T00:33:32.726Z,7.45
2019-02-06T00:36:03.095Z,7.20
2019-02-06T00:38:33.051Z,6.91
2019-02-06T00:41:03.024Z,7.54
2019-02-06T00:43:33.058Z,7.74
2019-02-06T00:46:03.043Z,7.68
2019-02-06T00:48:32.919Z,7.62
2019-02-06T00:51:02.923Z,6.79
2019-02-06T00:53:32.936Z,7.37
2019-02-06T00:56:03.213Z,7.26
2019-02-06T00:58:33.414Z,7.63
2019-02-06T01:01:03.471Z,7.60
2019-02-06T01:03:33.440Z,7.72
2019-02-06T01:06:03.622Z,7.66
2019-02-06T01:08:33.786Z,7.60
2019-02-06T01:11:04.190Z,7.65
2019-02-06T01:13:34.085Z,7.43
2019-02-06T01:16:04.059Z,7.63
2019-02-06T01:18:34.023Z,7.49
2019-02-06T01:21:04.072Z,7.51
2019-02-06T01:23:34.060Z,7.47
2019-02-06T01:26:04.556Z,7.58
2019-02-06T01:28:34.701Z,7.64
2019-02-06T01:31:09.584Z,7.57
2019-02-06T01:33:39.513Z,7.56
2019-02-06T01:36:09.435Z,7.65
2019-02-06T01:38:39.488Z,7.82
2019-02-06T01:41:09.485Z,7.47
2019-02-06T01:43:39.443Z,7.34
2019-02-06T01:46:09.443Z,7.63
2019-02-06T01:48:39.338Z,7.72
2019-02-06T01:51:09.556Z,7.59
2019-02-06T01:53:39.664Z,7.53
2019-02-06T01:56:09.714Z,7.55
2019-02-06T01:58:39.596Z,7.63
2019-02-06T02:01:09.650Z,7.52
2019-02-06T02:03:39.566Z,7.54
2019-02-06T02:06:09.697Z,7.62
2019-02-06T02:08:44.661Z,7.69
2019-02-06T02:11:14.687Z,7.08
2019-02-06T02:13:47.494Z,7.44
2019-02-06T02:16:17.414Z,7.51
2019-02-06T02:18:47.387Z,7.39
2019-02-06T02:21:17.438Z,7.40
2019-02-06T02:23:47.410Z,6.82
2019-02-06T02:26:19.222Z,7.25
2019-02-06T02:28:49.173Z,7.42
2019-02-06T02:31:19.118Z,7.46
2019-02-06T02:33:48.996Z,7.54
2019-02-06T02:36:19.287Z,6.49
2019-02-06T02:38:49.354Z,6.98
2019-02-06T02:41:19.617Z,7.44
2019-02-06T02:43:49.521Z,7.54
2019-02-06T02:46:19.413Z,7.09
2019-02-06T02:48:49.375Z,7.35
2019-02-06T02:51:19.391Z,6.88
2019-02-06T02:53:49.332Z,6.32
2019-02-06T02:56:19.222Z,7.07
2019-02-06T02:58:49.149Z,7.55
2019-02-06T03:01:41.031Z,7.31
2019-02-06T03:04:19.269Z,7.43
2019-02-06T03:06:50.118Z,7.15
2019-02-06T03:09:20.072Z,7.32
2019-02-06T03:11:50.080Z,7.64
2019-02-06T03:14:20.114Z,7.69
2019-02-06T03:16:50.007Z,7.61
2019-02-06T03:19:20.391Z,7.17
2019-02-06T03:21:50.289Z,7.42
2019-02-06T03:24:20.222Z,6.98
2019-02-06T03:26:50.660Z,7.55
2019-02-06T03:29:20.548Z,7.71
2019-02-06T03:31:51.141Z,7.46
2019-02-06T03:34:21.078Z,7.77
2019-02-06T03:36:51.210Z,7.65
2019-02-06T03:39:21.219Z,7.68
2019-02-06T03:41:51.600Z,7.54
2019-02-06T03:44:21.705Z,7.63
2019-02-06T03:46:51.595Z,7.66
2019-02-06T03:49:21.604Z,7.06
2019-02-06T03:51:51.537Z,7.29
2019-02-06T03:54:21.553Z,7.62
2019-02-06T03:56:51.961Z,7.49
2019-02-06T03:59:21.893Z,7.45
2019-02-06T04:01:52.130Z,7.56
2019-02-06T04:04:22.008Z,7.45
2019-02-06T04:06:58.233Z,6.92
2019-02-06T04:09:23.799Z,6.19
2019-02-06T04:11:53.691Z,7.33
2019-02-06T04:14:23.875Z,7.67
2019-02-06T04:16:53.825Z,7.19
2019-02-06T04:19:23.780Z,6.50
2019-02-06T04:21:53.779Z,7.42
2019-02-06T04:24:24.203Z,7.27
2019-02-06T04:26:54.159Z,7.18
2019-02-06T04:29:24.608Z,7.06
2019-02-06T04:31:54.493Z,7.17
2019-02-06T04:34:24.479Z,6.49
2019-02-06T04:37:05.824Z,7.09
2019-02-06T04:39:26.110Z,7.22
2019-02-06T04:41:56.051Z,7.26
2019-02-06T04:44:25.992Z,7.18
2019-02-06T04:46:55.890Z,7.18
2019-02-06T04:49:25.825Z,7.16
2019-02-06T04:51:55.742Z,6.99
2019-02-06T04:54:25.761Z,6.83
2019-02-06T04:56:55.773Z,7.00
2019-02-06T04:59:26.055Z,7.02
2019-02-06T05:01:55.991Z,6.91
2019-02-06T05:04:25.956Z,6.93
2019-02-06T05:06:55.886Z,7.00
2019-02-06T05:09:26.125Z,6.82
2019-02-06T05:11:56.114Z,6.72
2019-02-06T05:14:26.390Z,6.73
2019-02-06T05:16:56.416Z,6.80
2019-02-06T05:19:26.440Z,6.60
2019-02-06T05:21:56.353Z,6.50
2019-02-06T05:24:26.645Z,6.39
2019-02-06T05:26:56.811Z,6.45
2019-02-06T05:29:26.685Z,6.45
2019-02-06T05:31:56.597Z,6.53
2019-02-06T05:34:27.120Z,6.41
2019-02-06T05:36:57.758Z,6.21
2019-02-06T05:39:27.717Z,6.32
2019-02-06T05:41:57.980Z,6.32
2019-02-06T05:44:28.013Z,6.18
2019-02-06T05:46:57.960Z,6.38
2019-02-06T05:49:28.340Z,6.28
2019-02-06T05:51:58.680Z,6.09
2019-02-06T05:54:28.558Z,6.08
2019-02-06T05:56:58.531Z,6.10
2019-02-06T05:59:28.446Z,5.82
2019-02-06T06:01:58.454Z,5.94
2019-02-06T06:04:28.402Z,6.09
2019-02-06T06:06:58.800Z,6.20
2019-02-06T06:09:28.751Z,6.22
2019-02-06T06:11:58.670Z,6.15
2019-02-06T06:14:28.832Z,6.13
2019-02-06T06:16:59.090Z,5.96
2019-02-06T06:19:29.101Z,5.95
2019-02-06T06:21:59.284Z,6.04
2019-02-06T06:24:29.631Z,5.93
2019-02-06T06:26:59.564Z,6.03
2019-02-06T06:29:29.741Z,5.93
2019-02-06T06:31:59.700Z,5.86
2019-02-06T06:34:29.641Z,5.86
2019-02-06T06:37:00.236Z,5.82
2019-02-06T06:39:30.186Z,6.00
2019-02-06T06:42:00.492Z,6.04
2019-02-06T06:44:30.460Z,5.84
2019-02-06T06:47:01.307Z,5.96
2019-02-06T06:49:31.318Z,5.89
2019-02-06T06:52:03.885Z,5.90
2019-02-06T06:54:33.239Z,5.90
2019-02-06T06:57:03.973Z,5.93
2019-02-06T06:59:34.152Z,6.04
2019-02-06T07:02:05.350Z,6.16
2019-02-06T07:04:36.425Z,6.14
2019-02-06T07:07:07.110Z,6.17
2019-02-06T07:09:37.223Z,6.09
2019-02-06T07:12:08.229Z,6.22
2019-02-06T07:14:39.071Z,6.25
2019-02-06T07:17:09.250Z,6.31
2019-02-06T07:19:39.690Z,6.27
2019-02-06T07:22:09.676Z,6.50
2019-02-06T07:24:39.740Z,6.55
2019-02-06T07:27:12.308Z,6.57
2019-02-06T07:29:42.297Z,6.63
2019-02-06T07:32:12.630Z,6.53
2019-02-06T07:34:42.631Z,6.66
2019-02-06T07:37:12.529Z,6.23
2019-02-06T07:39:42.443Z,6.52
2019-02-06T07:42:12.370Z,6.64
2019-02-06T07:44:42.429Z,6.70
2019-02-06T07:47:12.863Z,6.52
2019-02-06T07:49:42.904Z,6.63
2019-02-06T07:52:12.881Z,6.72
2019-02-06T07:54:43.224Z,6.69
2019-02-06T07:57:13.256Z,6.65
2019-02-06T07:59:43.247Z,6.53
2019-02-06T08:02:13.513Z,6.72
2019-02-06T08:04:43.662Z,6.75
2019-02-06T08:07:13.659Z,6.71
2019-02-06T08:09:43.657Z,6.70
2019-02-06T08:12:14.003Z,6.83
2019-02-06T08:14:44.092Z,6.66
2019-02-06T08:17:14.904Z,6.74
2019-02-06T08:19:44.936Z,6.79
2019-02-06T08:22:15.279Z,6.81
2019-02-06T08:24:45.266Z,6.80
2019-02-06T08:27:16.183Z,6.80
2019-02-06T08:29:46.681Z,6.76
2019-02-06T08:32:16.531Z,6.58
2019-02-06T08:34:46.530Z,6.79
2019-02-06T08:37:16.468Z,6.93
2019-02-06T08:39:46.468Z,7.00
2019-02-06T08:42:16.720Z,7.07
2019-02-06T08:44:46.990Z,7.09
2019-02-06T08:47:17.052Z,7.14
2019-02-06T08:49:47.758Z,7.02
2019-02-06T08:52:17.965Z,7.04
2019-02-06T08:54:47.842Z,6.87
2019-02-06T08:57:17.856Z,6.94
2019-02-06T08:59:48.130Z,7.12
2019-02-06T09:02:18.194Z,7.16
2019-02-06T09:04:55.565Z,7.16
2019-02-06T09:07:20.075Z,7.23
2019-02-06T09:09:50.556Z,7.31
2019-02-06T09:12:20.931Z,7.31
2019-02-06T09:14:50.995Z,7.41
2019-02-06T09:17:21.023Z,7.47
2019-02-06T09:19:50.984Z,7.48
2019-02-06T09:22:20.956Z,7.61
2019-02-06T09:24:50.898Z,7.58
2019-02-06T09:27:21.164Z,7.67
2019-02-06T09:29:51.220Z,7.59
2019-02-06T09:32:23.052Z,7.27
2019-02-06T09:34:53.092Z,7.58
2019-02-06T09:37:24.355Z,7.59
2019-02-06T09:39:54.436Z,7.70
2019-02-06T09:42:24.602Z,7.86
2019-02-06T09:44:55.755Z,7.82
2019-02-06T09:47:26.091Z,7.95
2019-02-06T09:49:57.972Z,7.91
2019-02-06T09:52:28.883Z,8.07
2019-02-06T09:54:59.161Z,8.10
2019-02-06T09:57:29.222Z,8.09
2019-02-06T09:59:59.367Z,8.24
2019-02-06T10:02:29.676Z,8.12
2019-02-06T10:04:59.646Z,8.32
2019-02-06T10:07:29.761Z,8.33
2019-02-06T10:10:00.328Z,8.45
2019-02-06T10:12:30.292Z,8.41
2019-02-06T10:15:00.401Z,8.49
2019-02-06T10:17:30.317Z,8.60
2019-02-06T10:20:00.350Z,8.45
2019-02-06T10:22:30.677Z,8.64
2019-02-06T10:25:00.965Z,8.64
2019-02-06T10:27:31.073Z,8.59
2019-02-06T10:30:03.847Z,8.65
2019-02-06T10:32:32.703Z,8.65
2019-02-06T10:35:02.699Z,8.52
2019-02-06T10:37:33.194Z,8.52
2019-02-06T10:40:03.323Z,8.60
2019-02-06T10:42:33.274Z,8.64
2019-02-06T10:45:03.324Z,8.74
2019-02-06T10:47:33.579Z,8.70
2019-02-06T10:50:03.770Z,8.96
2019-02-06T10:52:34.108Z,9.10
2019-02-06T10:55:04.643Z,9.26
2019-02-06T10:57:34.828Z,9.31
2019-02-06T11:00:10.939Z,9.18
2019-02-06T11:02:41.049Z,9.38
2019-02-06T11:05:11.709Z,9.45
2019-02-06T11:07:41.775Z,9.44
2019-02-06T11:10:12.882Z,9.59
2019-02-06T11:12:42.789Z,9.19
2019-02-06T11:15:13.638Z,9.39
2019-02-06T11:17:43.727Z,9.28
2019-02-06T11:20:17.642Z,9.37
2019-02-06T11:22:51.618Z,8.87
2019-02-06T11:25:21.848Z,9.19
2019-02-06T11:27:51.767Z,9.04
2019-02-06T11:30:25.071Z,9.55
2019-02-06T11:32:55.745Z,9.77
2019-02-06T11:35:25.923Z,9.88
2019-02-06T11:37:56.415Z,9.83
2019-02-06T11:40:26.588Z,10.02
2019-02-06T11:42:57.263Z,10.02
2019-02-06T11:45:30.889Z,9.99
2019-02-06T11:48:01.168Z,10.15
2019-02-06T11:50:42.634Z,10.14
2019-02-06T11:53:22.073Z,10.20
2019-02-06T11:55:52.361Z,9.96
2019-02-06T11:58:22.437Z,10.06
2019-02-06T12:01:08.104Z,10.03
2019-02-06T12:03:38.039Z,10.06
2019-02-06T12:06:08.191Z,10.11
2019-02-06T12:08:38.343Z,9.82
2019-02-06T12:11:08.459Z,9.91
2019-02-06T12:13:38.474Z,9.64
2019-02-06T12:16:08.542Z,9.66
2019-02-06T12:18:38.566Z,9.87
2019-02-06T12:21:08.630Z,10.13
2019-02-06T12:23:38.657Z,10.15
2019-02-06T12:26:09.117Z,10.20
2019-02-06T12:28:39.047Z,10.15
2019-02-06T12:31:09.030Z,10.15
2019-02-06T12:33:39.439Z,10.27
2019-02-06T12:36:09.798Z,10.01
2019-02-06T12:38:40.039Z,10.09
2019-02-06T12:41:10.219Z,10.22
2019-02-06T12:43:40.152Z,10.10
2019-02-06T12:46:10.056Z,10.22
2019-02-06T12:48:40.279Z,10.18
2019-02-06T12:51:10.475Z,10.16
2019-02-06T12:53:40.791Z,10.14
2019-02-06T12:56:10.855Z,10.06
2019-02-06T12:58:41.072Z,10.00
2019-02-06T13:01:11.366Z,10.07
2019-02-06T13:03:41.322Z,10.13
2019-02-06T13:06:11.297Z,10.03
2019-02-06T13:08:41.733Z,10.13
2019-02-06T13:11:11.985Z,10.11
2019-02-06T13:13:45.044Z,10.21
2019-02-06T13:16:13.602Z,10.07
2019-02-06T13:18:43.750Z,10.26
2019-02-06T13:21:13.897Z,10.25
2019-02-06T13:23:44.272Z,10.28
2019-02-06T13:26:14.491Z,10.22
2019-02-06T13:28:44.622Z,10.29
2019-02-06T13:31:14.603Z,10.31
2019-02-06T13:33:44.523Z,10.20
2019-02-06T13:36:14.550Z,10.24
2019-02-06T13:38:44.524Z,10.06
2019-02-06T13:41:14.787Z,10.17
2019-02-06T13:43:44.738Z,10.27
2019-02-06T13:46:14.705Z,10.23
2019-02-06T13:48:44.642Z,10.26
2019-02-06T13:51:19.050Z,10.32
2019-02-06T13:53:46.893Z,10.16
2019-02-06T13:56:16.835Z,10.10
2019-02-06T13:58:46.777Z,10.03
2019-02-06T14:01:25.312Z,10.25
2019-02-06T14:03:48.662Z,10.17
2019-02-06T14:06:18.759Z,10.32
2019-02-06T14:08:48.700Z,10.27
2019-02-06T14:11:18.674Z,10.22
2019-02-06T14:13:48.628Z,10.27
2019-02-06T14:16:18.986Z,10.14
2019-02-06T14:18:49.186Z,10.06
2019-02-06T14:21:19.082Z,10.07
2019-02-06T14:24:04.156Z,10.07
2019-02-06T14:26:47.614Z,10.02
2019-02-06T14:30:16.184Z,9.97
2019-02-06T14:33:34.527Z,9.90
2019-02-06T14:36:47.203Z,9.75
2019-02-06T14:40:22.114Z,9.55
2019-02-06T14:43:32.121Z,9.45
2019-02-06T14:46:59.507Z,9.40
2019-02-06T14:50:10.459Z,9.36
2019-02-06T14:53:24.540Z,9.37
2019-02-06T14:56:56.622Z,9.55
2019-02-06T14:59:51.966Z,9.30
2019-02-06T15:03:17.538Z,9.27
2019-02-06T15:06:56.804Z,9.16
2019-02-06T15:10:06.266Z,9.26
2019-02-06T15:13:04.100Z,9.17
2019-02-06T15:16:30.841Z,9.25
2019-02-06T15:19:32.921Z,8.96
2019-02-06T15:22:46.510Z,8.84
2019-02-06T15:26:02.703Z,8.85
2019-02-06T15:29:30.884Z,8.46
2019-02-06T15:32:38.952Z,8.74
2019-02-06T15:35:58.038Z,8.70
2019-02-06T15:39:22.690Z,8.54
2019-02-06T15:42:18.739Z,8.64
2019-02-06T15:45:46.401Z,8.39
2019-02-06T15:49:09.420Z,8.39
2019-02-06T15:52:20.752Z,8.30
2019-02-06T15:55:24.263Z,8.39
2019-02-06T15:58:21.199Z,8.43
2019-02-06T16:01:25.603Z,8.48
2019-02-06T16:05:26.095Z,8.51
2019-02-06T16:08:41.581Z,8.50
2019-02-06T16:11:55.845Z,8.46
2019-02-06T16:15:10.138Z,8.55
2019-02-06T16:18:01.376Z,8.56
2019-02-06T16:21:06.164Z,8.36
2019-02-06T16:24:15.927Z,8.28
2019-02-06T16:27:34.724Z,7.43
2019-02-06T16:30:44.270Z,8.06
2019-02-06T16:34:12.820Z,8.23
2019-02-06T16:37:40.187Z,8.12
2019-02-06T16:41:04.725Z,8.28
2019-02-06T16:44:43.609Z,8.27
2019-02-06T16:47:55.866Z,7.96
2019-02-06T16:50:48.706Z,8.24
2019-02-06T16:54:22.495Z,8.01
2019-02-06T16:57:34.998Z,8.27
2019-02-06T17:00:58.593Z,8.37
2019-02-06T17:04:14.240Z,8.32
2019-02-06T17:07:25.089Z,8.36
2019-02-06T17:10:40.995Z,8.33
2019-02-06T17:13:54.151Z,8.37
2019-02-06T17:17:09.761Z,8.37
2019-02-06T17:20:07.078Z,8.36
2019-02-06T17:22:57.417Z,8.52
2019-02-06T17:26:07.841Z,8.56
2019-02-06T17:29:09.103Z,8.53
2019-02-06T17:33:11.201Z,8.24
2019-02-06T17:36:44.755Z,8.52
2019-02-06T17:39:51.098Z,8.44
2019-02-06T17:43:10.259Z,8.27
2019-02-06T17:46:36.460Z,8.40
2019-02-06T17:49:56.377Z,8.00
2019-02-06T17:53:30.121Z,8.14
2019-02-06T17:56:00.088Z,8.31
2019-02-06T17:58:36.831Z,8.23
2019-02-06T18:01:41.775Z,7.99
2019-02-06T18:04:21.452Z,8.27
2019-02-06T18:06:51.531Z,8.08
2019-02-06T18:09:21.598Z,8.20
2019-02-06T18:11:53.107Z,8.27
2019-02-06T18:14:23.159Z,8.32
2019-02-06T18:16:53.210Z,8.38
2019-02-06T18:19:23.668Z,8.37
2019-02-06T18:21:54.131Z,8.27
2019-02-06T18:24:24.265Z,8.42
2019-02-06T18:26:55.340Z,8.43
2019-02-06T18:29:25.578Z,8.40
2019-02-06T18:31:55.586Z,8.36
2019-02-06T18:34:25.659Z,8.46
2019-02-06T18:36:56.060Z,8.48
2019-02-06T18:39:26.170Z,8.38
2019-02-06T18:41:56.311Z,8.53
2019-02-06T18:44:26.309Z,8.51
2019-02-06T18:46:56.847Z,8.51
2019-02-06T18:49:26.801Z,8.48
2019-02-06T18:51:56.849Z,8.46
2019-02-06T18:54:27.131Z,8.37
2019-02-06T18:56:57.563Z,8.34
2019-02-06T18:59:27.546Z,8.54
2019-02-06T19:01:57.592Z,8.21
2019-02-06T19:04:27.672Z,8.38
2019-02-06T19:06:57.667Z,8.52
2019-02-06T19:09:28.995Z,8.39
2019-02-06T19:11:59.641Z,8.19
2019-02-06T19:14:29.886Z,8.61
2019-02-06T19:17:00.019Z,8.57
2019-02-06T19:19:31.367Z,8.52
2019-02-06T19:22:01.301Z,8.64
2019-02-06T19:24:32.691Z,8.33
2019-02-06T19:27:03.910Z,8.50
2019-02-06T19:29:35.077Z,8.43
2019-02-06T19:32:05.609Z,8.44
2019-02-06T19:34:36.425Z,8.42
2019-02-06T19:37:08.555Z,8.53
2019-02-06T19:39:38.462Z,8.57
2019-02-06T19:42:08.906Z,8.65
2019-02-06T19:44:39.129Z,8.66
2019-02-06T19:47:12.027Z,7.97
2019-02-06T19:49:42.454Z,8.48
2019-02-06T19:52:13.752Z,8.23
2019-02-06T19:54:46.181Z,8.00
2019-02-06T19:57:16.331Z,7.88
2019-02-06T19:59:47.198Z,8.35
2019-02-06T20:02:17.084Z,7.93
2019-02-06T20:04:50.852Z,8.20
2019-02-06T20:07:20.875Z,8.28
2019-02-06T20:09:50.889Z,8.32
2019-02-06T20:12:21.423Z,8.35
2019-02-06T20:14:52.410Z,8.21
2019-02-06T20:17:25.321Z,8.17
2019-02-06T20:19:55.615Z,8.12
2019-02-06T20:22:26.792Z,8.17
2019-02-06T20:24:56.928Z,7.99
2019-02-06T20:27:28.299Z,8.10
2019-02-06T20:29:58.869Z,8.06
2019-02-06T20:32:30.409Z,8.24
2019-02-06T20:35:00.583Z,8.10
2019-02-06T20:37:31.220Z,8.21
2019-02-06T20:40:02.996Z,8.11
2019-02-06T20:42:35.062Z,8.03
2019-02-06T20:45:06.301Z,8.13
2019-02-06T20:47:37.374Z,8.09
2019-02-06T20:50:15.699Z,8.03
2019-02-06T20:52:45.672Z,8.08
2019-02-06T20:55:19.584Z,8.12
2019-02-06T20:57:50.258Z,8.23
2019-02-06T21:00:27.003Z,8.00
2019-02-06T21:03:07.530Z,7.70
2019-02-06T21:05:38.488Z,7.64
2019-02-06T21:08:09.456Z,6.65
2019-02-06T21:10:39.646Z,7.58
2019-02-06T21:13:10.215Z,7.32
2019-02-06T21:15:40.755Z,8.12
2019-02-06T21:18:10.861Z,8.11
2019-02-06T21:20:42.671Z,7.95
2019-02-06T21:23:13.744Z,8.07
2019-02-06T21:25:43.671Z,7.97
2019-02-06T21:28:14.328Z,7.97
2019-02-06T21:30:46.858Z,7.60
2019-02-06T21:33:16.181Z,7.80
2019-02-06T21:35:46.282Z,7.92
2019-02-06T21:38:16.660Z,7.76
2019-02-06T21:40:47.760Z,7.91
2019-02-06T21:43:18.375Z,7.88
2019-02-06T21:45:48.364Z,7.89
2019-02-06T21:48:22.176Z,7.86
2019-02-06T21:50:52.139Z,7.90
2019-02-06T21:53:22.411Z,7.92
2019-02-06T21:55:52.605Z,7.70
2019-02-06T21:58:22.587Z,8.00
2019-02-06T22:00:52.545Z,7.99
2019-02-06T22:03:23.302Z,7.90
2019-02-06T22:05:54.410Z,7.87
2019-02-06T22:08:24.353Z,7.93
2019-02-06T22:10:55.984Z,7.93
2019-02-06T22:13:27.738Z,7.96
2019-02-06T22:15:58.634Z,7.82
2019-02-06T22:18:28.702Z,8.01
2019-02-06T22:20:59.167Z,7.94
2019-02-06T22:23:31.042Z,8.00
2019-02-06T22:26:01.205Z,7.97
2019-02-06T22:28:31.361Z,7.85
2019-02-06T22:31:02.890Z,8.13
2019-02-06T22:33:32.875Z,8.18
2019-02-06T22:36:02.809Z,7.22
2019-02-06T22:38:32.713Z,7.72
2019-02-06T22:41:02.748Z,8.16
2019-02-06T22:43:33.298Z,8.24
2019-02-06T22:46:03.511Z,8.11
2019-02-06T22:48:33.814Z,8.20
2019-02-06T22:51:04.001Z,7.72
2019-02-06T22:53:34.391Z,7.92
2019-02-06T22:56:06.543Z,7.82
2019-02-06T22:58:37.333Z,6.92
2019-02-06T23:01:52.067Z,7.52
2019-02-06T23:04:21.992Z,6.91
2019-02-06T23:06:53.178Z,8.09
2019-02-06T23:09:23.873Z,8.21
2019-02-06T23:11:54.006Z,8.33
2019-02-06T23:14:23.960Z,8.31
2019-02-06T23:16:53.982Z,8.40
2019-02-06T23:19:24.243Z,8.23
2019-02-06T23:21:54.155Z,8.36
2019-02-06T23:24:24.070Z,8.23
2019-02-06T23:26:54.028Z,8.26
2019-02-06T23:29:24.212Z,8.32
2019-02-06T23:31:54.119Z,7.54
2019-02-06T23:34:24.130Z,8.14
2019-02-06T23:36:54.078Z,8.22
2019-02-06T23:39:24.061Z,8.26
2019-02-06T23:41:53.963Z,8.31
2019-02-06T23:44:28.913Z,8.23
2019-02-06T23:46:56.229Z,8.33
2019-02-06T23:49:26.633Z,8.22
2019-02-06T23:51:56.674Z,8.11
2019-02-06T23:54:26.643Z,7.92
2019-02-06T23:56:56.873Z,8.11
2019-02-06T23:59:26.958Z,8.18
